createdAt,value
2018-04-23T00:02:07.916Z,66.61
2018-04-23T00:04:35.577Z,68.84
2018-04-23T00:07:03.201Z,70.42
2018-04-23T00:09:30.826Z,72.07
2018-04-23T00:11:58.462Z,73.63
2018-04-23T00:14:26.072Z,74.90
2018-04-23T00:16:53.729Z,76.54
2018-04-23T00:19:21.329Z,77.55
2018-04-23T00:21:48.967Z,78.15
2018-04-23T00:24:16.594Z,78.75
2018-04-23T00:26:44.216Z,78.38
2018-04-23T00:29:11.817Z,77.55
2018-04-23T00:31:39.462Z,76.35
2018-04-23T00:34:07.072Z,77.62
2018-04-23T00:36:34.722Z,76.65
2018-04-23T00:39:02.317Z,77.87
2018-04-23T00:41:29.945Z,78.73
2018-04-23T00:43:57.550Z,78.96
2018-04-23T00:46:25.141Z,79.69
2018-04-23T00:48:52.804Z,79.49
2018-04-23T00:51:20.497Z,78.92
2018-04-23T00:53:48.120Z,79.25
2018-04-23T00:56:15.744Z,78.11
2018-04-23T00:58:43.390Z,78.58
2018-04-23T01:01:10.981Z,79.00
2018-04-23T01:03:38.629Z,79.63
2018-04-23T01:06:06.219Z,79.08
2018-04-23T01:08:34.016Z,79.76
2018-04-23T01:11:01.609Z,80.42
2018-04-23T01:13:29.232Z,80.55
2018-04-23T01:15:56.867Z,80.60
2018-04-23T01:18:24.488Z,80.81
2018-04-23T01:20:52.098Z,80.86
2018-04-23T01:23:19.765Z,80.51
2018-04-23T01:25:47.393Z,80.44
2018-04-23T01:28:15.081Z,79.96
2018-04-23T01:30:42.704Z,79.14
2018-04-23T01:33:10.309Z,79.48
2018-04-23T01:35:37.968Z,79.96
2018-04-23T01:38:05.610Z,80.21
2018-04-23T01:40:33.245Z,80.22
2018-04-23T01:43:00.943Z,79.95
2018-04-23T01:45:28.569Z,79.50
2018-04-23T01:47:56.170Z,78.75
2018-04-23T01:50:23.802Z,78.69
2018-04-23T01:52:51.400Z,78.60
2018-04-23T01:55:19.036Z,78.76
2018-04-23T01:57:46.637Z,78.55
2018-04-23T02:00:14.278Z,78.64
2018-04-23T02:02:41.892Z,78.76
2018-04-23T02:05:09.595Z,78.43
2018-04-23T02:07:37.200Z,78.60
2018-04-23T02:10:04.916Z,78.74
2018-04-23T02:12:32.496Z,78.52
2018-04-23T02:15:00.174Z,78.52
2018-04-23T02:17:27.798Z,79.22
2018-04-23T02:19:55.401Z,79.56
2018-04-23T02:22:23.058Z,79.90
2018-04-23T02:24:50.644Z,80.17
2018-04-23T02:27:18.268Z,80.45
2018-04-23T02:29:45.878Z,80.67
2018-04-23T02:32:13.509Z,80.94
2018-04-23T02:34:41.115Z,80.58
2018-04-23T02:37:08.813Z,81.14
2018-04-23T02:39:36.401Z,81.16
2018-04-23T02:42:04.033Z,81.22
2018-04-23T02:44:31.671Z,80.87
2018-04-23T02:46:59.311Z,80.42
2018-04-23T02:49:26.903Z,80.01
2018-04-23T02:51:54.546Z,80.22
2018-04-23T02:54:22.147Z,80.17
2018-04-23T02:56:49.745Z,80.23
2018-04-23T02:59:17.372Z,80.04
2018-04-23T03:01:44.972Z,79.72
2018-04-23T03:04:12.662Z,80.30
2018-04-23T03:06:40.276Z,80.60
2018-04-23T03:09:07.921Z,80.83
2018-04-23T03:11:35.619Z,79.84
2018-04-23T03:14:03.319Z,78.46
2018-04-23T03:16:30.921Z,78.54
2018-04-23T03:18:58.550Z,79.21
2018-04-23T03:21:26.146Z,78.18
2018-04-23T03:23:53.836Z,78.02
2018-04-23T03:26:21.448Z,78.11
2018-04-23T03:28:49.088Z,78.20
2018-04-23T03:31:16.689Z,78.18
2018-04-23T03:33:44.489Z,78.02
2018-04-23T03:36:12.117Z,78.65
2018-04-23T03:38:39.729Z,78.69
2018-04-23T03:41:07.373Z,78.60
2018-04-23T03:43:34.973Z,79.66
2018-04-23T03:46:02.613Z,79.31
2018-04-23T03:48:30.324Z,79.28
2018-04-23T03:50:57.957Z,78.80
2018-04-23T03:53:25.617Z,78.15
2018-04-23T03:55:53.312Z,78.03
2018-04-23T03:58:20.912Z,76.36
2018-04-23T04:00:48.689Z,77.52
2018-04-23T04:03:16.314Z,76.70
2018-04-23T04:05:43.940Z,76.77
2018-04-23T04:08:11.644Z,76.16
2018-04-23T04:10:39.284Z,75.86
2018-04-23T04:13:18.435Z,75.82
2018-04-23T04:15:57.697Z,75.94
2018-04-23T04:18:36.908Z,76.12
2018-04-23T04:21:04.549Z,75.18
2018-04-23T04:23:32.151Z,75.27
2018-04-23T04:25:59.757Z,74.51
2018-04-23T04:28:29.049Z,74.37
2018-04-23T04:30:56.650Z,74.81
2018-04-23T04:33:24.378Z,74.45
2018-04-23T04:35:51.984Z,75.14
2018-04-23T04:38:19.623Z,75.15
2018-04-23T04:40:47.257Z,75.09
2018-04-23T04:43:14.917Z,75.45
2018-04-23T04:45:42.521Z,75.39
2018-04-23T04:48:10.145Z,75.14
2018-04-23T04:50:37.757Z,75.16
2018-04-23T04:53:05.393Z,75.46
2018-04-23T04:55:32.996Z,75.16
2018-04-23T04:58:00.668Z,75.91
2018-04-23T05:00:28.261Z,74.96
2018-04-23T05:02:55.940Z,75.50
2018-04-23T05:05:23.550Z,75.14
2018-04-23T05:07:51.193Z,74.36
2018-04-23T05:10:18.808Z,73.43
2018-04-23T05:12:46.457Z,73.38
2018-04-23T05:15:14.082Z,72.87
2018-04-23T05:17:41.682Z,72.21
2018-04-23T05:20:09.301Z,72.58
2018-04-23T05:22:36.921Z,72.13
2018-04-23T05:25:04.625Z,72.69
2018-04-23T05:27:32.310Z,72.32
2018-04-23T05:29:59.968Z,72.92
2018-04-23T05:32:27.553Z,71.98
2018-04-23T05:34:55.202Z,72.18
2018-04-23T05:37:22.932Z,72.40
2018-04-23T05:39:50.569Z,72.21
2018-04-23T05:42:18.173Z,71.56
2018-04-23T05:44:45.835Z,71.51
2018-04-23T05:47:13.453Z,71.87
2018-04-23T05:49:41.143Z,72.42
2018-04-23T05:52:08.737Z,71.82
2018-04-23T05:54:36.404Z,72.55
2018-04-23T05:57:04.037Z,72.36
2018-04-23T05:59:31.629Z,72.84
2018-04-23T06:01:59.352Z,72.82
2018-04-23T06:04:26.965Z,72.59
2018-04-23T06:06:54.590Z,72.22
2018-04-23T06:09:22.198Z,72.31
2018-04-23T06:11:49.973Z,73.02
2018-04-23T06:14:17.639Z,72.53
2018-04-23T06:16:45.261Z,72.50
2018-04-23T06:19:12.865Z,72.61
2018-04-23T06:21:40.638Z,72.42
2018-04-23T06:24:08.228Z,72.07
2018-04-23T06:26:35.854Z,72.82
2018-04-23T06:29:03.449Z,72.36
2018-04-23T06:31:31.098Z,72.21
2018-04-23T06:33:58.681Z,71.86
2018-04-23T06:36:26.328Z,72.29
2018-04-23T06:38:53.937Z,71.48
2018-04-23T06:41:21.572Z,71.78
2018-04-23T06:43:49.174Z,72.28
2018-04-23T06:46:16.801Z,71.24
2018-04-23T06:48:44.534Z,71.70
2018-04-23T06:51:12.158Z,71.74
2018-04-23T06:53:39.801Z,71.90
2018-04-23T06:56:08.152Z,71.47
2018-04-23T06:58:36.061Z,71.25
2018-04-23T07:01:03.662Z,71.54
2018-04-23T07:03:31.351Z,71.24
2018-04-23T07:05:58.938Z,70.81
2018-04-23T07:08:26.581Z,70.64
2018-04-23T07:10:54.189Z,68.63
2018-04-23T07:13:21.842Z,68.52
2018-04-23T07:15:49.527Z,68.26
2018-04-23T07:18:17.135Z,68.12
2018-04-23T07:20:44.837Z,68.81
2018-04-23T07:23:12.430Z,68.23
2018-04-23T07:25:40.054Z,66.88
2018-04-23T07:28:07.655Z,67.32
2018-04-23T07:30:35.351Z,67.53
2018-04-23T07:33:02.944Z,66.30
2018-04-23T07:35:30.600Z,67.16
2018-04-23T07:37:58.218Z,67.53
2018-04-23T07:40:25.872Z,67.56
2018-04-23T07:42:53.492Z,67.60
2018-04-23T07:45:21.125Z,67.22
2018-04-23T07:47:48.735Z,65.85
2018-04-23T07:50:16.353Z,66.51
2018-04-23T07:52:43.949Z,66.41
2018-04-23T07:55:11.601Z,66.02
2018-04-23T07:57:39.196Z,65.92
2018-04-23T08:00:06.797Z,66.10
2018-04-23T08:02:34.521Z,65.98
2018-04-23T08:05:02.145Z,66.45
2018-04-23T08:07:29.784Z,66.69
2018-04-23T08:09:57.400Z,66.90
2018-04-23T08:12:25.037Z,65.98
2018-04-23T08:14:52.670Z,66.00
2018-04-23T08:17:20.400Z,65.39
2018-04-23T08:19:48.058Z,66.29
2018-04-23T08:22:15.681Z,65.21
2018-04-23T08:24:43.294Z,65.27
2018-04-23T08:27:11.004Z,65.65
2018-04-23T08:29:38.602Z,65.12
2018-04-23T08:32:06.240Z,64.51
2018-04-23T08:34:34.093Z,64.12
2018-04-23T08:37:01.693Z,63.98
2018-04-23T08:39:29.366Z,63.38
2018-04-23T08:41:56.973Z,63.03
2018-04-23T08:44:24.700Z,63.63
2018-04-23T08:46:52.304Z,62.54
2018-04-23T08:49:19.951Z,62.61
2018-04-23T08:51:47.561Z,62.75
2018-04-23T08:54:15.194Z,60.65
2018-04-23T08:56:42.801Z,61.34
2018-04-23T08:59:10.548Z,60.52
2018-04-23T09:01:38.152Z,60.91
2018-04-23T09:04:05.820Z,60.06
2018-04-23T09:06:33.438Z,58.96
2018-04-23T09:09:01.078Z,57.76
2018-04-23T09:11:29.059Z,56.88
2018-04-23T09:13:57.159Z,56.94
2018-04-23T09:16:24.955Z,57.01
2018-04-23T09:18:52.852Z,57.30
2018-04-23T09:21:20.703Z,57.36
2018-04-23T09:23:48.484Z,57.69
2018-04-23T09:26:16.462Z,57.89
2018-04-23T09:28:44.764Z,57.91
2018-04-23T09:31:12.879Z,57.96
2018-04-23T09:33:41.008Z,58.21
2018-04-23T09:36:08.653Z,59.22
2018-04-23T09:38:36.284Z,56.85
2018-04-23T09:41:03.925Z,57.58
2018-04-23T09:43:31.763Z,57.96
2018-04-23T09:45:59.768Z,58.08
2018-04-23T09:48:27.373Z,57.97
2018-04-23T09:50:54.993Z,58.14
2018-04-23T09:53:22.642Z,58.60
2018-04-23T09:55:50.297Z,58.49
2018-04-23T09:58:17.925Z,59.50
2018-04-23T10:00:45.669Z,59.26
2018-04-23T10:03:13.317Z,59.83
2018-04-23T10:05:41.013Z,59.55
2018-04-23T10:08:08.753Z,59.46
2018-04-23T10:10:36.509Z,59.66
2018-04-23T10:13:04.167Z,58.85
2018-04-23T10:15:31.793Z,58.83
2018-04-23T10:17:59.396Z,57.99
2018-04-23T10:20:27.035Z,58.44
2018-04-23T10:22:54.642Z,59.53
2018-04-23T10:25:22.472Z,59.42
2018-04-23T10:27:50.113Z,59.35
2018-04-23T10:30:17.838Z,58.09
2018-04-23T10:32:45.498Z,58.07
2018-04-23T10:35:13.319Z,57.58
2018-04-23T10:37:41.030Z,56.59
2018-04-23T10:40:08.728Z,56.73
2018-04-23T10:42:36.589Z,57.22
2018-04-23T10:45:04.419Z,56.76
2018-04-23T10:47:32.141Z,55.62
2018-04-23T10:49:59.802Z,55.45
2018-04-23T10:52:27.661Z,55.52
2018-04-23T10:54:55.570Z,54.63
2018-04-23T10:57:23.523Z,53.60
2018-04-23T10:59:51.234Z,53.28
2018-04-23T11:02:18.974Z,52.38
2018-04-23T11:04:46.887Z,52.68
2018-04-23T11:07:14.852Z,51.82
2018-04-23T11:09:42.575Z,52.62
2018-04-23T11:12:10.284Z,52.07
2018-04-23T11:14:38.066Z,51.97
2018-04-23T11:17:05.764Z,52.12
2018-04-23T11:19:33.617Z,51.01
2018-04-23T11:22:01.385Z,50.44
2018-04-23T11:24:29.060Z,49.56
2018-04-23T11:26:57.218Z,48.79
2018-04-23T11:29:25.179Z,49.23
2018-04-23T11:31:52.953Z,50.03
2018-04-23T11:34:20.669Z,48.93
2018-04-23T11:36:48.443Z,49.35
2018-04-23T11:39:16.547Z,49.70
2018-04-23T11:41:44.316Z,49.34
2018-04-23T11:44:12.434Z,48.31
2018-04-23T11:46:40.454Z,47.13
2018-04-23T11:49:08.499Z,46.83
2018-04-23T11:51:36.292Z,46.55
2018-04-23T11:54:04.202Z,46.13
2018-04-23T11:56:31.885Z,47.86
2018-04-23T11:58:59.684Z,48.40
2018-04-23T12:01:27.425Z,48.36
2018-04-23T12:03:55.131Z,48.57
2018-04-23T12:06:22.901Z,48.08
2018-04-23T12:08:50.750Z,47.27
2018-04-23T12:11:18.909Z,46.92
2018-04-23T12:13:46.669Z,46.56
2018-04-23T12:16:14.410Z,44.39
2018-04-23T12:18:42.218Z,43.92
2018-04-23T12:21:10.141Z,45.87
2018-04-23T12:23:38.043Z,46.65
2018-04-23T12:26:05.737Z,45.26
2018-04-23T12:28:33.448Z,45.34
2018-04-23T12:31:01.222Z,44.15
2018-04-23T12:33:28.833Z,44.90
2018-04-23T12:35:56.536Z,44.92
2018-04-23T12:38:24.144Z,43.90
2018-04-23T12:40:51.924Z,44.63
2018-04-23T12:43:19.572Z,43.67
2018-04-23T12:45:47.229Z,42.23
2018-04-23T12:48:14.827Z,42.30
2018-04-23T12:50:42.515Z,43.82
2018-04-23T12:53:10.164Z,41.35
2018-04-23T12:55:37.905Z,41.21
2018-04-23T12:58:05.599Z,41.27
2018-04-23T13:00:33.264Z,41.20
2018-04-23T13:03:00.886Z,40.31
2018-04-23T13:05:28.583Z,40.09
2018-04-23T13:07:56.198Z,39.87
2018-04-23T13:10:23.861Z,39.57
2018-04-23T13:12:51.505Z,39.48
2018-04-23T13:15:19.172Z,39.72
2018-04-23T13:17:46.814Z,38.69
2018-04-23T13:20:14.413Z,39.19
2018-04-23T13:22:42.049Z,39.65
2018-04-23T13:25:09.645Z,38.93
2018-04-23T13:27:37.279Z,38.05
2018-04-23T13:30:04.882Z,38.16
2018-04-23T13:32:32.522Z,39.06
2018-04-23T13:35:00.118Z,38.44
2018-04-23T13:37:27.802Z,39.14
2018-04-23T13:39:55.412Z,39.24
2018-04-23T13:42:23.073Z,39.56
2018-04-23T13:44:50.673Z,38.47
2018-04-23T13:47:18.261Z,40.62
2018-04-23T13:49:45.893Z,40.32
2018-04-23T13:52:13.489Z,38.86
2018-04-23T13:54:41.117Z,38.97
2018-04-23T13:57:08.728Z,37.69
2018-04-23T13:59:36.366Z,37.38
2018-04-23T14:02:03.949Z,37.17
2018-04-23T14:04:31.657Z,38.38
2018-04-23T14:06:59.306Z,37.48
2018-04-23T14:09:26.986Z,36.64
2018-04-23T14:11:54.573Z,37.15
2018-04-23T14:14:22.212Z,37.31
2018-04-23T14:16:49.847Z,38.12
2018-04-23T14:19:17.416Z,38.66
2018-04-23T14:21:45.022Z,37.90
2018-04-23T14:24:12.653Z,38.40
2018-04-23T14:26:40.316Z,38.62
2018-04-23T14:29:08.013Z,39.38
2018-04-23T14:31:35.743Z,40.21
2018-04-23T14:34:03.397Z,39.73
2018-04-23T14:36:31.088Z,40.06
2018-04-23T14:38:58.727Z,40.06
2018-04-23T14:41:26.356Z,40.53
2018-04-23T14:43:54.065Z,39.72
2018-04-23T14:46:22.085Z,39.26
2018-04-23T14:48:50.043Z,39.57
2018-04-23T14:51:17.797Z,38.90
2018-04-23T14:53:45.426Z,39.66
2018-04-23T14:56:13.045Z,39.44
2018-04-23T14:58:40.784Z,40.29
2018-04-23T15:01:08.471Z,41.15
2018-04-23T15:03:36.305Z,41.26
2018-04-23T15:06:04.082Z,40.22
2018-04-23T15:08:31.852Z,39.01
2018-04-23T15:10:59.622Z,37.99
2018-04-23T15:13:27.333Z,38.31
2018-04-23T15:15:54.970Z,38.04
2018-04-23T15:18:22.651Z,38.19
2018-04-23T15:20:50.313Z,39.81
2018-04-23T15:23:18.450Z,40.31
2018-04-23T15:25:46.319Z,40.22
2018-04-23T15:28:14.063Z,39.66
2018-04-23T15:30:41.713Z,39.58
2018-04-23T15:33:09.542Z,39.68
2018-04-23T15:35:37.308Z,40.17
2018-04-23T15:38:05.114Z,39.95
2018-04-23T15:40:32.874Z,40.29
2018-04-23T15:43:00.912Z,41.23
2018-04-23T15:45:28.775Z,41.38
2018-04-23T15:47:56.581Z,41.32
2018-04-23T15:50:24.408Z,41.24
2018-04-23T15:52:52.215Z,41.25
2018-04-23T15:55:19.942Z,40.42
2018-04-23T15:57:47.591Z,39.85
2018-04-23T16:00:15.231Z,38.69
2018-04-23T16:02:42.905Z,39.87
2018-04-23T16:05:10.562Z,39.76
2018-04-23T16:07:38.204Z,40.52
2018-04-23T16:10:05.881Z,39.78
2018-04-23T16:12:33.473Z,39.04
2018-04-23T16:15:01.113Z,39.87
2018-04-23T16:17:28.821Z,40.68
2018-04-23T16:19:56.498Z,41.78
2018-04-23T16:22:24.452Z,41.95
2018-04-23T16:24:52.220Z,42.17
2018-04-23T16:27:19.994Z,42.06
2018-04-23T16:29:47.853Z,42.52
2018-04-23T16:32:16.938Z,42.73
2018-04-23T16:34:44.911Z,42.37
2018-04-23T16:37:12.785Z,43.66
2018-04-23T16:39:40.597Z,42.40
2018-04-23T16:42:08.479Z,43.62
2018-04-23T16:44:39.417Z,42.55
2018-04-23T16:47:03.891Z,43.65
2018-04-23T16:49:31.593Z,42.50
2018-04-23T16:51:59.269Z,42.82
2018-04-23T16:54:26.924Z,42.84
2018-04-23T16:56:54.639Z,42.72
2018-04-23T16:59:22.284Z,43.24
2018-04-23T17:01:49.904Z,43.33
2018-04-23T17:04:17.545Z,42.53
2018-04-23T17:06:45.199Z,42.28
2018-04-23T17:09:12.888Z,42.91
2018-04-23T17:11:40.526Z,42.47
2018-04-23T17:14:08.235Z,42.86
2018-04-23T17:16:35.882Z,43.47
2018-04-23T17:19:03.540Z,43.56
2018-04-23T17:21:31.263Z,43.69
2018-04-23T17:23:58.913Z,43.47
2018-04-23T17:26:26.588Z,43.86
2018-04-23T17:28:54.325Z,44.02
2018-04-23T17:31:22.020Z,44.47
2018-04-23T17:33:49.685Z,44.48
2018-04-23T17:36:17.474Z,44.44
2018-04-23T17:38:45.128Z,44.01
2018-04-23T17:41:12.907Z,45.21
2018-04-23T17:43:40.763Z,44.65
2018-04-23T17:46:08.384Z,45.88
2018-04-23T17:48:36.085Z,46.33
2018-04-23T17:51:03.775Z,44.96
2018-04-23T17:53:31.473Z,45.84
2018-04-23T17:55:59.145Z,45.83
2018-04-23T17:58:26.835Z,46.58
2018-04-23T18:00:54.517Z,47.28
2018-04-23T18:03:22.116Z,47.68
2018-04-23T18:05:49.806Z,47.38
2018-04-23T18:08:17.470Z,46.61
2018-04-23T18:10:45.144Z,47.54
2018-04-23T18:13:12.816Z,46.82
2018-04-23T18:15:40.498Z,46.53
2018-04-23T18:18:08.133Z,47.00
2018-04-23T18:20:35.801Z,47.72
2018-04-23T18:23:03.455Z,49.55
2018-04-23T18:25:31.100Z,48.99
2018-04-23T18:27:58.862Z,46.26
2018-04-23T18:30:26.694Z,46.73
2018-04-23T18:32:54.356Z,47.19
2018-04-23T18:35:22.002Z,47.46
2018-04-23T18:37:49.724Z,47.48
2018-04-23T18:40:17.440Z,47.89
2018-04-23T18:42:45.190Z,47.91
2018-04-23T18:45:12.938Z,48.07
2018-04-23T18:47:40.540Z,48.41
2018-04-23T18:50:08.132Z,48.86
2018-04-23T18:52:35.791Z,49.13
2018-04-23T18:55:03.510Z,49.42
2018-04-23T18:57:31.195Z,49.50
2018-04-23T18:59:58.804Z,48.74
2018-04-23T19:02:26.453Z,49.10
2018-04-23T19:04:54.084Z,49.42
2018-04-23T19:07:21.737Z,49.31
2018-04-23T19:09:49.414Z,49.19
2018-04-23T19:12:17.015Z,49.40
2018-04-23T19:14:44.722Z,48.79
2018-04-23T19:17:12.282Z,48.85
2018-04-23T19:19:39.981Z,48.82
2018-04-23T19:22:07.641Z,48.97
2018-04-23T19:24:35.299Z,49.13
2018-04-23T19:27:02.929Z,49.09
2018-04-23T19:29:30.675Z,49.10
2018-04-23T19:31:58.460Z,49.06
2018-04-23T19:34:26.138Z,49.07
2018-04-23T19:36:53.812Z,48.96
2018-04-23T19:39:21.665Z,49.09
2018-04-23T19:41:49.392Z,49.24
2018-04-23T19:44:17.029Z,48.96
2018-04-23T19:46:44.706Z,49.45
2018-04-23T19:49:12.471Z,49.44
2018-04-23T19:51:40.180Z,49.43
2018-04-23T19:54:07.799Z,49.36
2018-04-23T19:56:35.594Z,49.59
2018-04-23T19:59:03.237Z,49.47
2018-04-23T20:01:31.041Z,49.64
2018-04-23T20:03:58.764Z,49.49
2018-04-23T20:06:26.395Z,49.72
2018-04-23T20:08:54.062Z,49.77
2018-04-23T20:11:21.704Z,49.15
2018-04-23T20:13:49.437Z,49.05
2018-04-23T20:16:17.099Z,49.51
2018-04-23T20:18:44.893Z,49.12
2018-04-23T20:21:12.576Z,49.42
2018-04-23T20:23:40.241Z,49.63
2018-04-23T20:26:07.840Z,50.09
2018-04-23T20:28:35.689Z,50.71
2018-04-23T20:31:03.273Z,51.37
2018-04-23T20:33:30.899Z,52.98
2018-04-23T20:35:58.601Z,53.18
2018-04-23T20:38:26.223Z,53.51
2018-04-23T20:40:53.914Z,53.97
2018-04-23T20:43:21.638Z,54.17
2018-04-23T20:45:49.344Z,54.31
2018-04-23T20:48:17.006Z,54.62
2018-04-23T20:50:44.711Z,54.41
2018-04-23T20:53:12.382Z,54.52
2018-04-23T20:55:40.065Z,54.65
2018-04-23T20:58:07.669Z,54.97
2018-04-23T21:00:35.360Z,54.67
2018-04-23T21:03:02.960Z,54.69
2018-04-23T21:05:30.725Z,54.59
2018-04-23T21:07:58.377Z,54.49
2018-04-23T21:10:26.030Z,54.31
2018-04-23T21:12:53.699Z,54.23
2018-04-23T21:15:21.375Z,53.92
2018-04-23T21:17:49.165Z,53.70
2018-04-23T21:20:16.813Z,53.43
2018-04-23T21:22:44.456Z,53.45
2018-04-23T21:25:12.177Z,53.36
2018-04-23T21:27:39.888Z,53.79
2018-04-23T21:30:07.520Z,54.31
2018-04-23T21:32:35.192Z,54.82
2018-04-23T21:35:02.834Z,55.88
2018-04-23T21:37:30.525Z,56.87
2018-04-23T21:39:58.233Z,56.63
2018-04-23T21:42:26.056Z,56.43
2018-04-23T21:44:53.776Z,55.69
2018-04-23T21:47:21.493Z,55.55
2018-04-23T21:49:49.162Z,55.25
2018-04-23T21:52:16.889Z,55.10
2018-04-23T21:54:44.655Z,54.63
2018-04-23T21:57:12.561Z,54.97
2018-04-23T21:59:40.271Z,55.11
2018-04-23T22:02:07.877Z,55.43
2018-04-23T22:04:35.535Z,55.35
2018-04-23T22:07:03.297Z,55.63
2018-04-23T22:09:30.957Z,55.69
2018-04-23T22:11:58.563Z,56.00
2018-04-23T22:14:26.230Z,56.15
2018-04-23T22:16:53.841Z,56.49
2018-04-23T22:19:21.523Z,56.46
2018-04-23T22:21:49.196Z,56.33
2018-04-23T22:24:16.889Z,56.39
2018-04-23T22:26:44.506Z,56.66
2018-04-23T22:29:12.142Z,56.53
2018-04-23T22:31:39.819Z,56.96
2018-04-23T22:34:07.441Z,57.16
2018-04-23T22:36:35.122Z,57.64
2018-04-23T22:39:02.814Z,57.86
2018-04-23T22:41:30.476Z,57.72
2018-04-23T22:43:58.101Z,57.58
2018-04-23T22:46:25.746Z,57.81
2018-04-23T22:48:53.401Z,58.05
2018-04-23T22:51:21.093Z,58.23
2018-04-23T22:53:48.708Z,58.46
2018-04-23T22:56:16.396Z,58.13
2018-04-23T22:58:44.019Z,58.61
2018-04-23T23:01:11.680Z,58.45
2018-04-23T23:03:39.386Z,58.57
2018-04-23T23:06:07.035Z,58.82
2018-04-23T23:08:34.670Z,58.69
2018-04-23T23:11:02.385Z,58.98
2018-04-23T23:13:30.096Z,58.96
2018-04-23T23:15:57.701Z,58.99
2018-04-23T23:18:25.349Z,58.81
2018-04-23T23:20:53.000Z,59.08
2018-04-23T23:23:20.672Z,59.21
2018-04-23T23:25:48.260Z,59.08
2018-04-23T23:28:15.922Z,58.91
2018-04-23T23:30:43.595Z,58.84
2018-04-23T23:33:11.286Z,58.90
2018-04-23T23:35:38.914Z,59.20
2018-04-23T23:38:06.595Z,59.32
2018-04-23T23:40:34.244Z,59.18
2018-04-23T23:43:01.930Z,59.41
2018-04-23T23:45:29.591Z,59.77
2018-04-23T23:47:57.248Z,60.09
2018-04-23T23:50:24.911Z,59.97
2018-04-23T23:52:52.573Z,59.80
2018-04-23T23:55:20.277Z,59.78
2018-04-23T23:57:47.948Z,59.54
